createdAt,value
2017-07-23T00:00:12.911Z,7.00
2017-07-23T00:02:39.882Z,7.90
2017-07-23T00:05:06.620Z,6.37
2017-07-23T00:07:32.977Z,5.73
2017-07-23T00:10:03.769Z,7.07
2017-07-23T00:12:31.589Z,7.07
2017-07-23T00:14:58.113Z,7.07
2017-07-23T00:17:24.211Z,8.00
2017-07-23T00:19:51.892Z,7.00
2017-07-23T00:22:19.295Z,7.00
2017-07-23T00:24:46.282Z,6.87
2017-07-23T00:27:12.363Z,7.80
2017-07-23T00:29:39.330Z,7.30
2017-07-23T00:32:05.746Z,8.83
2017-07-23T00:34:31.794Z,7.70
2017-07-23T00:36:58.783Z,9.30
2017-07-23T00:39:25.216Z,8.50
2017-07-23T00:41:53.415Z,8.57
2017-07-23T00:44:19.439Z,10.10
2017-07-23T00:46:45.416Z,9.13
2017-07-23T00:49:12.720Z,8.53
2017-07-23T00:51:42.815Z,7.90
2017-07-23T00:54:10.439Z,9.20
2017-07-23T00:56:37.112Z,11.00
2017-07-23T00:59:04.022Z,7.80
2017-07-23T01:01:33.989Z,8.67
2017-07-23T01:03:59.996Z,7.67
2017-07-23T01:06:26.261Z,9.17
2017-07-23T01:08:52.223Z,8.20
2017-07-23T01:11:18.159Z,9.27
2017-07-23T01:13:44.135Z,9.20
2017-07-23T01:16:11.023Z,7.77
2017-07-23T01:18:37.041Z,8.40
2017-07-23T01:21:05.448Z,8.90
2017-07-23T01:23:33.463Z,7.50
2017-07-23T01:26:00.380Z,7.03
2017-07-23T01:28:26.439Z,9.27
2017-07-23T01:30:53.213Z,8.20
2017-07-23T01:33:20.976Z,8.70
2017-07-23T01:35:47.797Z,8.83
2017-07-23T01:38:14.798Z,8.43
2017-07-23T01:40:45.270Z,12.00
2017-07-23T01:43:12.831Z,8.23
2017-07-23T01:45:39.799Z,7.77
2017-07-23T01:48:07.463Z,8.73
2017-07-23T01:50:33.473Z,7.37
2017-07-23T01:52:59.480Z,7.70
2017-07-23T01:55:26.076Z,7.77
2017-07-23T01:57:52.978Z,7.87
2017-07-23T02:00:18.985Z,9.00
2017-07-23T02:02:46.675Z,9.87
2017-07-23T02:05:13.978Z,7.37
2017-07-23T02:07:40.792Z,8.33
2017-07-23T02:10:06.885Z,6.97
2017-07-23T02:12:34.293Z,7.77
2017-07-23T02:17:34.001Z,6.80
2017-07-23T02:19:59.989Z,7.07
2017-07-23T02:22:25.992Z,6.40
2017-07-23T02:24:53.710Z,10.80
2017-07-23T02:27:21.328Z,7.10
2017-07-23T02:29:49.800Z,7.67
2017-07-23T02:32:15.920Z,6.80
2017-07-23T02:34:46.625Z,7.00
2017-07-23T02:37:17.342Z,8.10
2017-07-23T02:39:47.644Z,7.40
2017-07-23T02:42:13.647Z,6.13
2017-07-23T02:44:39.648Z,7.37
2017-07-23T02:47:08.276Z,6.33
2017-07-23T02:49:35.972Z,6.90
2017-07-23T02:52:02.698Z,6.40
2017-07-23T02:54:39.473Z,6.40
2017-07-23T02:57:05.510Z,6.50
2017-07-23T02:59:32.950Z,6.93
2017-07-23T03:01:58.978Z,6.20
2017-07-23T03:04:26.168Z,6.60
2017-07-23T03:06:53.148Z,6.43
2017-07-23T03:09:19.505Z,7.10
2017-07-23T03:11:46.721Z,6.37
2017-07-23T03:14:14.402Z,7.10
2017-07-23T03:16:40.395Z,6.73
2017-07-23T03:19:07.052Z,6.47
2017-07-23T03:21:35.375Z,7.27
2017-07-23T03:24:01.408Z,6.70
2017-07-23T03:26:28.823Z,5.93
2017-07-23T03:28:54.877Z,6.23
2017-07-23T03:31:21.061Z,7.13
2017-07-23T03:33:48.532Z,6.53
2017-07-23T03:36:15.162Z,6.40
2017-07-23T03:38:43.014Z,6.67
2017-07-23T03:41:12.515Z,6.77
2017-07-23T03:43:39.111Z,7.30
2017-07-23T03:46:08.507Z,7.97
2017-07-23T03:48:40.050Z,6.93
2017-07-23T03:51:07.625Z,6.40
2017-07-23T03:53:34.545Z,7.20
2017-07-23T03:56:00.644Z,6.40
2017-07-23T03:58:26.705Z,6.13
2017-07-23T04:00:52.697Z,7.07
2017-07-23T04:03:18.955Z,7.07
2017-07-23T04:05:46.577Z,6.03
2017-07-23T04:08:12.618Z,6.57
2017-07-23T04:10:38.649Z,6.40
2017-07-23T04:13:04.651Z,6.93
2017-07-23T04:15:32.486Z,6.53
2017-07-23T04:18:02.007Z,6.80
2017-07-23T04:20:28.042Z,6.70
2017-07-23T04:22:54.108Z,7.20
2017-07-23T04:25:20.900Z,6.90
2017-07-23T04:27:46.930Z,8.17
2017-07-23T04:30:13.050Z,7.20
2017-07-23T04:32:39.161Z,7.77
2017-07-23T04:35:05.407Z,7.03
2017-07-23T04:37:31.440Z,7.90
2017-07-23T04:39:57.469Z,6.97
2017-07-23T04:42:24.606Z,7.10
2017-07-23T04:44:51.881Z,8.20
2017-07-23T04:47:19.091Z,7.57
2017-07-23T04:49:45.699Z,9.83
2017-07-23T04:52:12.306Z,6.93
2017-07-23T04:54:38.334Z,7.80
2017-07-23T04:57:07.920Z,7.43
2017-07-23T04:59:34.919Z,7.73
2017-07-23T05:02:00.948Z,7.10
2017-07-23T05:04:26.900Z,7.10
2017-07-23T05:06:54.668Z,6.90
2017-07-23T05:09:20.688Z,12.10
2017-07-23T05:11:47.077Z,7.40
2017-07-23T05:14:13.080Z,6.90
2017-07-23T05:16:39.767Z,7.40
2017-07-23T05:19:05.760Z,8.60
2017-07-23T05:21:31.784Z,7.60
2017-07-23T05:23:57.791Z,6.80
2017-07-23T05:26:23.891Z,6.53
2017-07-23T05:28:49.950Z,7.33
2017-07-23T05:31:18.119Z,6.97
2017-07-23T05:33:44.156Z,11.63
2017-07-23T05:36:10.457Z,7.03
2017-07-23T05:38:37.276Z,8.00
2017-07-23T05:41:03.362Z,9.27
2017-07-23T05:43:30.583Z,6.80
2017-07-23T05:45:57.519Z,6.40
2017-07-23T05:48:23.600Z,6.67
2017-07-23T05:50:50.290Z,6.60
2017-07-23T05:53:16.320Z,7.30
2017-07-23T05:55:43.054Z,7.03
2017-07-23T05:58:10.064Z,6.60
2017-07-23T06:00:41.552Z,6.10
2017-07-23T06:03:08.278Z,6.23
2017-07-23T06:05:34.961Z,7.60
2017-07-23T06:10:32.815Z,7.33
2017-07-23T06:12:59.704Z,8.03
2017-07-23T06:17:56.515Z,5.63
2017-07-23T06:20:22.504Z,6.33
2017-07-23T06:22:48.672Z,5.97
2017-07-23T06:25:15.476Z,5.93
2017-07-23T06:27:41.649Z,8.57
2017-07-23T06:30:08.220Z,5.80
2017-07-23T06:32:34.914Z,5.83
2017-07-23T06:35:01.912Z,5.80
2017-07-23T06:37:28.573Z,5.57
2017-07-23T06:39:55.130Z,5.43
2017-07-23T06:42:21.871Z,6.30
2017-07-23T06:44:47.935Z,6.03
2017-07-23T06:47:15.673Z,6.07
2017-07-23T06:49:41.669Z,6.27
2017-07-23T06:52:07.709Z,6.73
2017-07-23T06:54:35.306Z,4.83
2017-07-23T06:57:01.292Z,4.90
2017-07-23T06:59:29.180Z,4.63
2017-07-23T07:01:57.591Z,4.63
2017-07-23T07:04:24.470Z,6.70
2017-07-23T07:06:50.510Z,5.17
2017-07-23T07:09:16.534Z,5.00
2017-07-23T07:11:44.582Z,4.07
2017-07-23T07:14:10.631Z,4.33
2017-07-23T07:16:38.042Z,5.00
2017-07-23T07:19:06.707Z,4.13
2017-07-23T07:21:34.246Z,5.00
2017-07-23T07:24:00.279Z,4.87
2017-07-23T07:26:27.239Z,4.37
2017-07-23T07:28:53.228Z,4.20
2017-07-23T07:31:19.259Z,4.97
2017-07-23T07:33:45.944Z,4.33
2017-07-23T07:36:12.150Z,6.53
2017-07-23T07:38:39.058Z,4.40
2017-07-23T07:41:05.928Z,3.97
2017-07-23T07:43:32.760Z,5.80
2017-07-23T07:45:58.799Z,3.70
2017-07-23T07:48:24.819Z,3.77
2017-07-23T07:50:51.919Z,4.60
2017-07-23T07:53:18.102Z,4.57
2017-07-23T07:55:45.809Z,4.27
2017-07-23T07:58:18.240Z,4.73
2017-07-23T08:00:51.579Z,4.83
2017-07-23T08:03:25.289Z,3.90
2017-07-23T08:05:56.277Z,3.60
2017-07-23T08:08:23.376Z,3.57
2017-07-23T08:10:49.848Z,4.47
2017-07-23T08:13:15.930Z,4.67
2017-07-23T08:15:42.122Z,3.23
2017-07-23T08:18:13.765Z,3.63
2017-07-23T08:20:48.050Z,3.43
2017-07-23T08:23:17.182Z,3.83
2017-07-23T08:25:46.617Z,3.50
2017-07-23T08:33:19.950Z,5.50
2017-07-23T08:35:46.951Z,4.53
2017-07-23T08:38:16.430Z,4.27
2017-07-23T08:43:17.449Z,3.80
2017-07-23T08:45:45.361Z,3.60
2017-07-23T08:48:12.817Z,3.93
2017-07-23T08:50:39.150Z,4.03
2017-07-23T08:53:05.239Z,4.67
2017-07-23T08:55:36.012Z,4.63
2017-07-23T09:00:38.880Z,5.33
2017-07-23T09:03:10.255Z,4.00
2017-07-23T09:08:19.757Z,3.43
2017-07-23T09:10:48.790Z,4.57
2017-07-23T09:13:19.391Z,3.00
2017-07-23T09:15:52.937Z,7.10
2017-07-23T09:18:23.857Z,5.07
2017-07-23T09:20:50.091Z,3.60
2017-07-23T09:23:16.836Z,4.30
2017-07-23T09:25:45.249Z,7.13
2017-07-23T09:28:13.273Z,4.23
2017-07-23T09:30:41.247Z,4.23
2017-07-23T09:33:10.439Z,3.87
2017-07-23T09:40:42.037Z,3.60
2017-07-23T09:43:12.860Z,5.47
2017-07-23T09:45:39.020Z,3.43
2017-07-23T09:48:07.171Z,4.80
2017-07-23T09:50:34.334Z,3.03
2017-07-23T09:53:03.287Z,4.93
2017-07-23T09:55:29.533Z,6.73
2017-07-23T09:57:57.787Z,4.23
2017-07-23T10:00:27.110Z,3.60
2017-07-23T10:05:28.683Z,5.40
2017-07-23T10:07:59.736Z,3.23
2017-07-23T10:10:26.365Z,3.73
2017-07-23T10:12:53.527Z,3.87
2017-07-23T10:15:21.209Z,5.10
2017-07-23T10:17:50.235Z,5.13
2017-07-23T10:20:20.166Z,4.80
2017-07-23T10:22:46.884Z,2.63
2017-07-23T10:25:13.777Z,2.97
2017-07-23T10:27:39.847Z,5.30
2017-07-23T10:35:19.164Z,4.00
2017-07-23T10:37:47.309Z,4.30
2017-07-23T10:40:13.479Z,3.83
2017-07-23T10:42:40.193Z,3.40
2017-07-23T10:45:09.900Z,3.90
2017-07-23T10:47:36.983Z,3.23
2017-07-23T10:52:38.427Z,3.10
2017-07-23T10:57:37.849Z,3.50
2017-07-23T11:00:04.876Z,4.10
2017-07-23T11:02:32.964Z,3.20
2017-07-23T11:07:32.689Z,2.80
2017-07-23T11:12:31.737Z,2.40
2017-07-23T11:14:59.249Z,4.10
2017-07-23T11:17:25.782Z,6.17
2017-07-23T11:19:53.235Z,6.47
2017-07-23T11:22:21.441Z,3.67
2017-07-23T11:24:48.462Z,2.60
2017-07-23T11:27:14.844Z,3.17
2017-07-23T11:29:41.302Z,2.97
2017-07-23T11:32:08.784Z,3.47
2017-07-23T11:34:38.395Z,6.00
2017-07-23T11:37:04.675Z,2.40
2017-07-23T11:42:04.891Z,3.67
2017-07-23T11:44:31.218Z,3.80
2017-07-23T11:46:57.851Z,2.77
2017-07-23T11:49:26.895Z,3.93
2017-07-23T11:51:53.589Z,2.73
2017-07-23T11:54:19.920Z,2.53
2017-07-23T11:56:48.656Z,5.07
2017-07-23T11:59:15.094Z,3.30
2017-07-23T12:04:14.542Z,4.27
2017-07-23T12:06:42.100Z,3.30
2017-07-23T12:09:08.395Z,3.50
2017-07-23T12:11:35.568Z,3.57
2017-07-23T12:14:03.771Z,3.50
2017-07-23T12:16:30.644Z,3.20
2017-07-23T12:19:01.479Z,8.33
2017-07-23T12:24:06.800Z,3.70
2017-07-23T12:26:34.229Z,4.90
2017-07-23T12:29:01.213Z,2.63
2017-07-23T12:31:28.596Z,3.03
2017-07-23T12:33:54.787Z,2.70
2017-07-23T12:36:23.524Z,2.60
2017-07-23T12:38:49.555Z,3.07
2017-07-23T12:41:17.716Z,2.80
2017-07-23T12:43:44.527Z,9.13
2017-07-23T12:46:12.237Z,2.83
2017-07-23T12:48:38.340Z,3.67
2017-07-23T12:51:04.566Z,2.47
2017-07-23T12:53:31.055Z,4.67
2017-07-23T12:55:57.228Z,3.40
2017-07-23T12:58:25.143Z,3.83
2017-07-23T13:00:51.395Z,2.90
2017-07-23T13:03:17.414Z,2.63
2017-07-23T13:05:44.575Z,2.80
2017-07-23T13:08:10.803Z,3.23
2017-07-23T13:10:38.011Z,4.60
2017-07-23T13:13:09.221Z,3.80
2017-07-23T13:56:17.776Z,2.43
2017-07-23T14:03:51.774Z,3.20
2017-07-23T14:06:19.859Z,3.70
2017-07-23T14:11:22.287Z,4.63
2017-07-23T14:13:50.491Z,3.93
2017-07-23T14:16:17.196Z,3.17
2017-07-23T14:23:48.016Z,4.33
2017-07-23T14:39:08.646Z,3.43
2017-07-23T14:41:36.485Z,4.53
2017-07-23T15:00:06.434Z,3.10
2017-07-23T15:02:38.872Z,8.00
2017-07-23T15:07:36.576Z,6.50
2017-07-23T15:10:06.262Z,2.97
2017-07-23T15:12:32.291Z,3.60
2017-07-23T15:17:31.145Z,2.97
2017-07-23T15:19:57.218Z,2.97
2017-07-23T15:22:24.253Z,4.60
2017-07-23T15:24:51.215Z,5.40
2017-07-23T15:27:17.493Z,6.40
2017-07-23T15:29:47.989Z,2.70
2017-07-23T15:32:16.438Z,2.63
2017-07-23T15:34:46.463Z,3.60
2017-07-23T15:39:49.234Z,2.73
2017-07-23T15:42:19.369Z,3.17
2017-07-23T15:44:47.440Z,9.60
2017-07-23T15:47:17.118Z,4.80
2017-07-23T15:49:43.168Z,4.00
2017-07-23T15:52:13.229Z,4.10
2017-07-23T15:54:40.083Z,5.90
2017-07-23T16:04:45.186Z,4.00
2017-07-23T16:07:12.232Z,5.53
2017-07-23T16:09:39.599Z,5.00
2017-07-23T16:12:07.940Z,5.10
2017-07-23T16:14:34.995Z,6.13
2017-07-23T16:17:05.570Z,5.53
2017-07-23T16:19:35.326Z,4.50
2017-07-23T16:22:04.644Z,4.13
2017-07-23T16:24:31.612Z,4.67
2017-07-23T16:26:58.553Z,3.20
2017-07-23T16:29:27.952Z,7.17
2017-07-23T16:31:55.450Z,4.60
2017-07-23T16:34:22.364Z,3.67
2017-07-23T16:36:50.530Z,3.57
2017-07-23T16:39:19.537Z,7.10
2017-07-23T16:41:47.335Z,4.23
2017-07-23T16:44:18.901Z,6.70
2017-07-23T16:46:45.850Z,3.60
2017-07-23T16:49:12.506Z,6.63
2017-07-23T16:51:38.584Z,3.40
2017-07-23T16:54:07.728Z,8.03
2017-07-23T16:56:38.900Z,5.20
2017-07-23T16:59:08.164Z,5.17
2017-07-23T17:01:34.764Z,4.57
2017-07-23T17:04:04.053Z,4.13
2017-07-23T17:06:30.715Z,4.50
2017-07-23T17:11:29.475Z,4.50
2017-07-23T17:13:57.414Z,4.13
2017-07-23T17:16:27.298Z,2.93
2017-07-23T17:18:53.274Z,8.87
2017-07-23T17:21:19.323Z,3.90
2017-07-23T17:23:45.346Z,4.37
2017-07-23T17:26:13.782Z,5.30
2017-07-23T17:28:40.472Z,8.37
2017-07-23T17:31:08.070Z,6.53
2017-07-23T17:33:34.444Z,6.87
2017-07-23T17:36:00.889Z,6.77
2017-07-23T17:38:27.823Z,4.90
2017-07-23T17:40:54.620Z,6.10
2017-07-23T17:43:22.741Z,3.70
2017-07-23T17:45:49.788Z,4.90
2017-07-23T17:48:15.816Z,4.13
2017-07-23T17:50:43.067Z,2.73
2017-07-23T17:53:12.102Z,4.83
2017-07-23T17:55:39.003Z,4.53
2017-07-23T17:58:06.087Z,3.30
2017-07-23T18:00:33.595Z,4.23
2017-07-23T18:02:59.712Z,4.23
2017-07-23T18:05:32.268Z,4.63
2017-07-23T18:07:58.326Z,5.27
2017-07-23T18:10:25.174Z,3.80
2017-07-23T18:12:52.047Z,3.43
2017-07-23T18:15:20.479Z,4.80
2017-07-23T18:17:47.559Z,5.23
2017-07-23T18:20:23.502Z,3.97
2017-07-23T18:22:49.601Z,5.33
2017-07-23T18:25:21.194Z,5.93
2017-07-23T18:27:51.578Z,3.80
2017-07-23T18:30:21.557Z,3.53
2017-07-23T18:32:50.866Z,4.17
2017-07-23T18:35:19.186Z,2.87
2017-07-23T18:37:47.654Z,3.13
2017-07-23T18:40:18.189Z,3.30
2017-07-23T18:42:45.839Z,2.73
2017-07-23T18:45:13.123Z,5.50
2017-07-23T18:47:45.529Z,4.27
2017-07-23T18:50:14.895Z,5.23
2017-07-23T18:52:45.198Z,3.87
2017-07-23T18:57:44.013Z,3.03
2017-07-23T19:00:13.288Z,3.53
2017-07-23T19:02:40.784Z,8.57
2017-07-23T19:05:07.833Z,3.77
2017-07-23T19:07:34.416Z,4.30
2017-07-23T19:10:01.256Z,3.30
2017-07-23T19:12:28.240Z,5.47
2017-07-23T19:14:54.245Z,3.50
2017-07-23T19:17:20.856Z,4.03
2017-07-23T19:19:49.219Z,4.23
2017-07-23T19:22:15.187Z,3.80
2017-07-23T19:24:41.875Z,4.10
2017-07-23T19:27:08.881Z,5.50
2017-07-23T19:29:35.621Z,3.90
2017-07-23T19:32:01.639Z,3.20
2017-07-23T19:34:30.041Z,3.30
2017-07-23T19:36:56.778Z,2.60
2017-07-23T19:39:25.494Z,7.57
2017-07-23T19:41:51.491Z,5.53
2017-07-23T19:44:18.410Z,3.60
2017-07-23T19:46:44.440Z,3.60
2017-07-23T19:49:10.438Z,4.50
2017-07-23T19:51:36.849Z,8.03
2017-07-23T19:54:04.468Z,4.80
2017-07-23T19:56:31.676Z,3.30
2017-07-23T19:58:59.451Z,3.63
2017-07-23T20:01:27.516Z,7.83
2017-07-23T20:03:53.486Z,4.70
2017-07-23T20:06:20.537Z,3.33
2017-07-23T20:08:50.947Z,4.20
2017-07-23T20:11:18.312Z,4.73
2017-07-23T20:13:44.349Z,5.97
2017-07-23T20:16:10.739Z,3.00
2017-07-23T20:18:37.244Z,4.10
2017-07-23T20:21:03.237Z,8.03
2017-07-23T20:23:29.213Z,5.00
2017-07-23T20:25:56.526Z,5.80
2017-07-23T20:28:22.584Z,4.43
2017-07-23T20:30:48.544Z,4.37
2017-07-23T20:33:14.477Z,4.97
2017-07-23T20:35:41.127Z,3.53
2017-07-23T20:38:07.086Z,3.73
2017-07-23T20:40:33.842Z,6.67
2017-07-23T20:43:00.510Z,3.40
2017-07-23T20:45:28.015Z,4.50
2017-07-23T20:47:57.273Z,3.70
2017-07-23T20:50:31.875Z,2.93
2017-07-23T20:53:03.393Z,3.33
2017-07-23T21:00:36.312Z,4.67
2017-07-23T21:03:06.833Z,3.63
2017-07-23T21:05:34.340Z,2.60
2017-07-23T21:10:34.943Z,3.87
2017-07-23T21:13:03.277Z,2.77
2017-07-23T21:18:05.808Z,3.53
2017-07-23T21:25:36.462Z,6.03
2017-07-23T21:30:37.977Z,5.03
2017-07-23T21:33:05.262Z,3.70
2017-07-23T21:35:36.018Z,5.53
2017-07-23T21:38:05.881Z,3.50
2017-07-23T21:40:32.902Z,4.33
2017-07-23T21:43:02.736Z,2.93
2017-07-23T21:45:29.196Z,5.37
2017-07-23T21:47:55.370Z,6.30
2017-07-23T21:50:22.728Z,3.27
2017-07-23T21:52:49.010Z,3.00
2017-07-23T21:55:15.138Z,4.07
2017-07-23T21:57:41.709Z,3.73
2017-07-23T22:00:07.949Z,3.33
2017-07-23T22:02:34.086Z,9.07
2017-07-23T22:05:02.405Z,3.10
2017-07-23T22:18:19.019Z,5.43
2017-07-23T22:20:45.736Z,3.30
2017-07-23T22:23:15.146Z,4.10
2017-07-23T22:25:41.334Z,4.07
2017-07-23T22:28:07.541Z,4.00
2017-07-23T22:30:36.625Z,3.90
2017-07-23T22:33:04.704Z,6.17
2017-07-23T22:35:32.176Z,4.50
2017-07-23T22:37:59.481Z,3.43
2017-07-23T22:40:28.054Z,3.50
2017-07-23T22:43:00.414Z,6.10
2017-07-23T22:45:31.443Z,5.20
2017-07-23T22:47:57.591Z,4.93
2017-07-23T22:50:23.963Z,6.57
2017-07-23T22:52:50.933Z,4.40
2017-07-23T22:55:20.493Z,6.20
2017-07-23T22:57:46.842Z,4.83
2017-07-23T23:00:12.971Z,5.23
2017-07-23T23:02:39.162Z,3.03
2017-07-23T23:05:06.206Z,3.70
2017-07-23T23:07:32.745Z,4.53
2017-07-23T23:09:59.239Z,3.37
2017-07-23T23:12:25.448Z,4.37
2017-07-23T23:14:51.740Z,5.00
2017-07-23T23:17:18.114Z,5.33
2017-07-23T23:19:44.481Z,3.23
2017-07-23T23:22:13.939Z,5.00
2017-07-23T23:24:41.586Z,5.37
2017-07-23T23:27:09.377Z,3.80
2017-07-23T23:29:36.665Z,4.60
2017-07-23T23:32:03.519Z,5.50
2017-07-23T23:34:31.064Z,5.40
2017-07-23T23:36:58.393Z,4.70
2017-07-23T23:39:24.635Z,3.43
2017-07-23T23:41:54.883Z,2.90
2017-07-23T23:44:21.390Z,3.37
2017-07-23T23:46:48.440Z,3.90
2017-07-23T23:49:14.764Z,3.77
2017-07-23T23:51:41.561Z,3.67
2017-07-23T23:54:07.670Z,9.93
2017-07-23T23:56:34.017Z,3.50
2017-07-23T23:59:00.124Z,6.47
